Airfield :
LOGIN :

Register | Disclaimer

   EN    FR    IT 

 










Legend :    VFR   Marginal VFR   IFR   Intensive IFR   Very Intensive IFR
Visi :
Ceiling :
>= 8 km
>= 3000ft
5 to 8 km
1000 to 3000 ft
1500m to 5 km
500 to 1000 ft
800 to 1500m
200 to 500 ft
< 800m
< 200 ft
Symbols :   Thunderstorms  Fog  Heavy snow  Heavy precipitations  Wind > 20 kt
SIGMETs :     Misc.  Thunderstorms  Icing  Turbulence  Mountain Waves  Volcanic Ashes






- Airport Elevation : 132 ft


EGXE - RAF Leeming

CURRENT METAR :
  • 061520Z 26011KT 9999 SCT025 BKN160 BKN250 10/06 Q0995 NOSIG RMK BLU BLU

EXPIRED METARs :
  • 061450Z 27015KT 9999 FEW016 BKN027 10/06 Q0995 TEMPO SCT020 RMK BLU TEMPO WHT
  • 061420Z 28009KT 9999 FEW016 BKN024 10/07 Q0995 TEMPO FEW020 RMK WHT TEMPO BLU
  • 061350Z 25008KT 9999 FEW016 BKN023 10/07 Q0994 TEMPO FEW020 RMK WHT TEMPO BLU
  • 061320Z 25011KT 9999 FEW016 BKN023 11/07 Q0994 TEMPO FEW020 RMK WHT TEMPO BLU
  • 061250Z 27009KT 9999 SCT023 BKN030 11/07 Q0995 NOSIG RMK WHT WHT

TAF TAF EGXE
Valid from the 06 at 15:00 until the 06 at 18:00 UTC


061351Z 0615/0618 27014KT 9999 FEW020
TEMPO 0615/0618 SCT020
PROB30
TEMPO 0615/0618 28015G27KT 6000 SHRA SCT020TCU



MET'MAP, your aeronautical weather chart ! - Copyright ORBIFLY December 2007 - Disclaimer

ORBIFLY MET'MAP TEAM :

Programming & Development : Alexandra Zaïnal
Concept & original design : Baudouin d'Aumeries
Assistance for programming : Marc-Olivier Méhu
Technical & hardware support : Manuel Goepfert

Contact : metmap@orbifly.com




SOURCES & CREDITS :

   NOAA